PWSweather.com
Personal Weather Stations
Station Observations
BLACKWELL
Blackwell, AlfretonGB DE55

BlackwellAlfretonGB DE55

Lat: 53.12076, Lon: -1.354978

Elevation: 410

Station Type: Vantage Pro

High Low Average
Temperature 50.0°F10.0°C 42.6°F5.9°C 45.7°F7.6°C
Dew Point 44.2°F6.8°C 37.0°F2.8°C 40.8°F4.9°C
Winds 4.0 mph 6.4 kmh Calm Calm 2.0 mph SW3.2 kmh SW
Wind Gusts 12.0 mph19.3 kmh 4.0 mph6.4 kmh 7.0 mph11.3 kmh
Humidity 94% 64% 83%
Pressure 29.89 in1012.2 mb 29.83 in1010.2 mb -
Precipitation 0.00 in0.0 mm - -
Hour Temp Dew Point Humidity Winds Wind Gusts Pressure Precip Precip Rate Daily Precip Total
12:44 AM 46.0°F7.8°C 43.0°F6.1°C 89% 2.0 mph S3.2 kmh S 7.0 mph11.3 kmh 29.89 in1012.2 mb 0.00 in0.0 mm 0.00 in0.0 mm 0.00 in0.0 mm
01:44 AM 44.8°F7.1°C 42.3°F5.7°C 91% 2.0 mph S3.2 kmh S 8.0 mph12.9 kmh 29.89 in1012.2 mb 0.00 in0.0 mm 0.00 in0.0 mm 0.00 in0.0 mm
02:44 AM 44.2°F6.8°C 41.7°F5.4°C 91% 1.0 mph S1.6 kmh S 9.0 mph14.5 kmh 29.88 in1011.9 mb 0.00 in0.0 mm 0.00 in0.0 mm 0.00 in0.0 mm
03:44 AM 43.3°F6.3°C 41.2°F5.1°C 92% Calm Calm 5.0 mph8.0 kmh 29.87 in1011.5 mb 0.00 in0.0 mm 0.00 in0.0 mm 0.00 in0.0 mm
04:44 AM 44.4°F6.9°C 42.3°F5.7°C 92% 1.0 mph SW1.6 kmh SW 5.0 mph8.0 kmh 29.87 in1011.5 mb 0.00 in0.0 mm 0.00 in0.0 mm 0.00 in0.0 mm
05:44 AM 44.1°F6.7°C 42.1°F5.6°C 93% 1.0 mph S1.6 kmh S 6.0 mph9.7 kmh 29.86 in1011.2 mb 0.00 in0.0 mm 0.00 in0.0 mm 0.00 in0.0 mm
06:44 AM 44.1°F6.7°C 42.3°F5.7°C 93% 1.0 mph S1.6 kmh S 8.0 mph12.9 kmh 29.86 in1011.2 mb 0.00 in0.0 mm 0.00 in0.0 mm 0.00 in0.0 mm
07:44 AM 44.1°F6.7°C 42.4°F5.8°C 94% 1.0 mph S1.6 kmh S 6.0 mph9.7 kmh 29.87 in1011.5 mb 0.00 in0.0 mm 0.00 in0.0 mm 0.00 in0.0 mm
08:44 AM 44.1°F6.7°C 42.3°F5.7°C 93% 1.0 mph S1.6 kmh S 5.0 mph8.0 kmh 29.87 in1011.5 mb 0.00 in0.0 mm 0.00 in0.0 mm 0.00 in0.0 mm
09:44 AM 45.9°F7.7°C 43.9°F6.6°C 93% 2.0 mph SW3.2 kmh SW 7.0 mph11.3 kmh 29.86 in1011.2 mb 0.00 in0.0 mm 0.00 in0.0 mm 0.00 in0.0 mm
10:44 AM 47.8°F8.8°C 44.2°F6.8°C 87% 3.0 mph WSW4.8 kmh WSW 10.0 mph16.1 kmh 29.85 in1010.8 mb 0.00 in0.0 mm 0.00 in0.0 mm 0.00 in0.0 mm
11:44 AM 48.6°F9.2°C 44.2°F6.8°C 85% 3.0 mph WSW4.8 kmh WSW 9.0 mph14.5 kmh 29.85 in1010.8 mb 0.00 in0.0 mm 0.00 in0.0 mm 0.00 in0.0 mm
12:44 PM 49.8°F9.9°C 42.3°F5.7°C 75% 4.0 mph SW6.4 kmh SW 8.0 mph12.9 kmh 29.85 in1010.8 mb 0.00 in0.0 mm 0.00 in0.0 mm 0.00 in0.0 mm
01:44 PM 50.0°F10.0°C 41.0°F5.0°C 71% 4.0 mph WSW6.4 kmh WSW 12.0 mph19.3 kmh 29.83 in1010.2 mb 0.00 in0.0 mm 0.00 in0.0 mm 0.00 in0.0 mm
02:44 PM 49.5°F9.7°C 40.8°F4.9°C 72% 2.0 mph SW3.2 kmh SW 7.0 mph11.3 kmh 29.84 in1010.5 mb 0.00 in0.0 mm 0.00 in0.0 mm 0.00 in0.0 mm
03:44 PM 49.5°F9.7°C 38.8°F3.8°C 67% 4.0 mph WSW6.4 kmh WSW 9.0 mph14.5 kmh 29.83 in1010.2 mb 0.00 in0.0 mm 0.00 in0.0 mm 0.00 in0.0 mm
04:44 PM 48.7°F9.3°C 37.2°F2.9°C 64% 3.0 mph SW4.8 kmh SW 7.0 mph11.3 kmh 29.84 in1010.5 mb 0.00 in0.0 mm 0.00 in0.0 mm 0.00 in0.0 mm
05:44 PM 47.1°F8.4°C 37.0°F2.8°C 68% 3.0 mph SW4.8 kmh SW 8.0 mph12.9 kmh 29.85 in1010.8 mb 0.00 in0.0 mm 0.00 in0.0 mm 0.00 in0.0 mm
06:44 PM 45.5°F7.5°C 38.1°F3.4°C 75% 2.0 mph WSW3.2 kmh WSW 6.0 mph9.7 kmh 29.85 in1010.8 mb 0.00 in0.0 mm 0.00 in0.0 mm 0.00 in0.0 mm
07:44 PM 43.5°F6.4°C 37.8°F3.2°C 80% 1.0 mph WSW1.6 kmh WSW 4.0 mph6.4 kmh 29.87 in1011.5 mb 0.00 in0.0 mm 0.00 in0.0 mm 0.00 in0.0 mm
08:44 PM 43.2°F6.2°C 38.3°F3.5°C 83% 1.0 mph SW1.6 kmh SW 4.0 mph6.4 kmh 29.88 in1011.9 mb 0.00 in0.0 mm 0.00 in0.0 mm 0.00 in0.0 mm
09:44 PM 42.6°F5.9°C 38.1°F3.4°C 84% 1.0 mph SW1.6 kmh SW 4.0 mph6.4 kmh 29.88 in1011.9 mb 0.00 in0.0 mm 0.00 in0.0 mm 0.00 in0.0 mm
10:44 PM 43.2°F6.2°C 39.4°F4.1°C 86% 1.0 mph WSW1.6 kmh WSW 5.0 mph8.0 kmh 29.88 in1011.9 mb 0.00 in0.0 mm 0.00 in0.0 mm 0.00 in0.0 mm
11:44 PM 43.9°F6.6°C 39.6°F4.2°C 85% 1.0 mph SW1.6 kmh SW 4.0 mph6.4 kmh 29.89 in1012.2 mb 0.00 in0.0 mm 0.00 in0.0 mm 0.00 in0.0 mm